Anahy, Brazil
Current Conditions -  °F | °C
As of 4:00 PM on Thursday 30 Oct 2014 (Local Time) from SBCA Reporting Station
Thunderstorm Thunderstorm  
Wind Chill: 66°   Ceiling: Unl
Heat Index: 66°   Visibility: 4mi
Dew Point: 66°   Wind: 25mph
Humidity: 100%   Direction: 280°W
Pressure: 29.83"   Gusts: 37mph
Location:  24.72°S, 53.08°W
Report Text: SBCA 301800Z 28022G32KT 6000 -TSRA SCT040 FEW050CB 19/19 Q1010
Loading
Personal Weather Stations






























Interactive Weather Map
Tropical Storm Tracking
New forecast layout! Learn more

10-Day Weather Forecast

Advertisements
Track Severe Weather on mobile